sensor_id;sensor_type;location;lat;lon;timestamp;temperature;humidity
69208;SHT31;56321;47.662;8.878;2022-11-15T00:00:48;7.90;81.95
69208;SHT31;56321;47.662;8.878;2022-11-15T00:03:18;7.92;82.05
69208;SHT31;56321;47.662;8.878;2022-11-15T00:05:44;7.93;82.35
69208;SHT31;56321;47.662;8.878;2022-11-15T00:08:10;7.93;82.47
69208;SHT31;56321;47.662;8.878;2022-11-15T00:10:36;7.97;82.52
69208;SHT31;56321;47.662;8.878;2022-11-15T00:13:12;7.97;82.54
69208;SHT31;56321;47.662;8.878;2022-11-15T00:15:39;8.00;82.58
69208;SHT31;56321;47.662;8.878;2022-11-15T00:18:05;8.00;82.63
69208;SHT31;56321;47.662;8.878;2022-11-15T00:20:33;8.03;82.71
69208;SHT31;56321;47.662;8.878;2022-11-15T00:22:58;8.03;82.80
69208;SHT31;56321;47.662;8.878;2022-11-15T00:25:24;8.06;82.71
69208;SHT31;56321;47.662;8.878;2022-11-15T00:27:49;8.06;82.58
69208;SHT31;56321;47.662;8.878;2022-11-15T00:30:17;8.06;82.61
69208;SHT31;56321;47.662;8.878;2022-11-15T00:32:42;8.05;82.49
69208;SHT31;56321;47.662;8.878;2022-11-15T00:35:07;8.05;82.44
69208;SHT31;56321;47.662;8.878;2022-11-15T00:37:33;8.06;82.56
69208;SHT31;56321;47.662;8.878;2022-11-15T00:39:58;8.05;82.53
69208;SHT31;56321;47.662;8.878;2022-11-15T00:42:23;8.05;82.39
69208;SHT31;56321;47.662;8.878;2022-11-15T00:44:49;8.00;82.41
69208;SHT31;56321;47.662;8.878;2022-11-15T00:47:14;8.00;82.42
69208;SHT31;56321;47.662;8.878;2022-11-15T00:49:39;8.00;82.55
69208;SHT31;56321;47.662;8.878;2022-11-15T00:52:06;7.97;82.35
69208;SHT31;56321;47.662;8.878;2022-11-15T00:54:31;7.97;82.27
69208;SHT31;56321;47.662;8.878;2022-11-15T00:56:56;7.96;82.31
69208;SHT31;56321;47.662;8.878;2022-11-15T00:59:22;7.90;82.31
69208;SHT31;56321;47.662;8.878;2022-11-15T01:01:47;7.89;82.29
69208;SHT31;56321;47.662;8.878;2022-11-15T01:04:13;7.85;82.28
69208;SHT31;56321;47.662;8.878;2022-11-15T01:06:39;7.83;82.39
69208;SHT31;56321;47.662;8.878;2022-11-15T01:09:04;7.82;82.33
69208;SHT31;56321;47.662;8.878;2022-11-15T01:11:29;7.77;82.19
69208;SHT31;56321;47.662;8.878;2022-11-15T01:13:55;7.72;82.22
69208;SHT31;56321;47.662;8.878;2022-11-15T01:16:20;7.71;82.40
69208;SHT31;56321;47.662;8.878;2022-11-15T01:18:46;7.68;82.44
69208;SHT31;56321;47.662;8.878;2022-11-15T01:21:14;7.71;82.64
69208;SHT31;56321;47.662;8.878;2022-11-15T01:23:40;7.69;82.69
69208;SHT31;56321;47.662;8.878;2022-11-15T01:26:07;7.71;82.70
69208;SHT31;56321;47.662;8.878;2022-11-15T01:28:36;7.71;82.50
69208;SHT31;56321;47.662;8.878;2022-11-15T01:31:04;7.74;82.47
69208;SHT31;56321;47.662;8.878;2022-11-15T01:33:30;7.71;82.38
69208;SHT31;56321;47.662;8.878;2022-11-15T01:35:55;7.69;82.41
69208;SHT31;56321;47.662;8.878;2022-11-15T01:38:22;7.72;82.33
69208;SHT31;56321;47.662;8.878;2022-11-15T01:40:48;7.71;82.41
69208;SHT31;56321;47.662;8.878;2022-11-15T01:43:27;7.72;82.43
69208;SHT31;56321;47.662;8.878;2022-11-15T01:46:01;7.75;82.50
69208;SHT31;56321;47.662;8.878;2022-11-15T01:48:34;7.77;82.47
69208;SHT31;56321;47.662;8.878;2022-11-15T01:51:11;7.77;82.56
69208;SHT31;56321;47.662;8.878;2022-11-15T01:53:40;7.79;82.54
69208;SHT31;56321;47.662;8.878;2022-11-15T01:56:11;7.83;82.60
69208;SHT31;56321;47.662;8.878;2022-11-15T01:58:38;7.85;82.51
69208;SHT31;56321;47.662;8.878;2022-11-15T02:01:06;7.86;82.33
69208;SHT31;56321;47.662;8.878;2022-11-15T02:03:38;7.85;82.39
69208;SHT31;56321;47.662;8.878;2022-11-15T02:06:05;7.86;82.20
69208;SHT31;56321;47.662;8.878;2022-11-15T02:08:30;7.83;82.19
69208;SHT31;56321;47.662;8.878;2022-11-15T02:10:55;7.83;82.20
69208;SHT31;56321;47.662;8.878;2022-11-15T02:13:21;7.85;82.16
69208;SHT31;56321;47.662;8.878;2022-11-15T02:16:09;7.83;82.25
69208;SHT31;56321;47.662;8.878;2022-11-15T02:18:43;7.89;82.23
69208;SHT31;56321;47.662;8.878;2022-11-15T02:32:57;7.86;81.74
69208;SHT31;56321;47.662;8.878;2022-11-15T02:37:56;7.82;81.78
69208;SHT31;56321;47.662;8.878;2022-11-15T02:40:40;7.83;81.95
69208;SHT31;56321;47.662;8.878;2022-11-15T02:43:12;7.85;82.16
69208;SHT31;56321;47.662;8.878;2022-11-15T02:46:14;7.89;82.26
69208;SHT31;56321;47.662;8.878;2022-11-15T02:48:43;7.90;82.29
69208;SHT31;56321;47.662;8.878;2022-11-15T02:51:09;7.93;82.28
69208;SHT31;56321;47.662;8.878;2022-11-15T02:53:34;7.95;82.18
69208;SHT31;56321;47.662;8.878;2022-11-15T02:56:00;7.97;82.03
69208;SHT31;56321;47.662;8.878;2022-11-15T02:58:55;7.96;82.15
69208;SHT31;56321;47.662;8.878;2022-11-15T03:04:42;7.97;82.34
69208;SHT31;56321;47.662;8.878;2022-11-15T03:07:24;7.97;82.33
69208;SHT31;56321;47.662;8.878;2022-11-15T03:09:55;7.99;82.35
69208;SHT31;56321;47.662;8.878;2022-11-15T03:12:30;8.02;82.31
69208;SHT31;56321;47.662;8.878;2022-11-15T03:15:01;8.02;82.30
69208;SHT31;56321;47.662;8.878;2022-11-15T03:17:34;8.03;82.33
69208;SHT31;56321;47.662;8.878;2022-11-15T03:20:03;8.06;82.30
69208;SHT31;56321;47.662;8.878;2022-11-15T03:22:32;8.07;82.26
69208;SHT31;56321;47.662;8.878;2022-11-15T03:25:02;8.07;82.14
69208;SHT31;56321;47.662;8.878;2022-11-15T03:27:35;8.05;82.04
69208;SHT31;56321;47.662;8.878;2022-11-15T03:30:05;8.03;81.95
69208;SHT31;56321;47.662;8.878;2022-11-15T03:32:35;8.00;82.12
69208;SHT31;56321;47.662;8.878;2022-11-15T03:35:20;7.99;82.26
69208;SHT31;56321;47.662;8.878;2022-11-15T03:40:45;7.99;82.09
69208;SHT31;56321;47.662;8.878;2022-11-15T03:43:22;7.96;82.14
69208;SHT31;56321;47.662;8.878;2022-11-15T03:46:00;8.00;82.20
69208;SHT31;56321;47.662;8.878;2022-11-15T03:48:32;8.00;82.16
69208;SHT31;56321;47.662;8.878;2022-11-15T03:50:58;8.02;82.17
69208;SHT31;56321;47.662;8.878;2022-11-15T03:53:24;8.03;82.25
69208;SHT31;56321;47.662;8.878;2022-11-15T03:55:49;8.06;82.35
69208;SHT31;56321;47.662;8.878;2022-11-15T03:58:14;8.07;82.40
69208;SHT31;56321;47.662;8.878;2022-11-15T04:00:40;8.10;82.29
69208;SHT31;56321;47.662;8.878;2022-11-15T04:03:05;8.12;82.23
69208;SHT31;56321;47.662;8.878;2022-11-15T04:05:32;8.13;82.19
69208;SHT31;56321;47.662;8.878;2022-11-15T04:07:57;8.13;82.18
69208;SHT31;56321;47.662;8.878;2022-11-15T04:10:23;8.14;82.16
69208;SHT31;56321;47.662;8.878;2022-11-15T04:12:48;8.14;82.14
69208;SHT31;56321;47.662;8.878;2022-11-15T04:15:16;8.14;82.13
69208;SHT31;56321;47.662;8.878;2022-11-15T04:17:56;8.16;82.07
69208;SHT31;56321;47.662;8.878;2022-11-15T04:20:24;8.16;82.04
69208;SHT31;56321;47.662;8.878;2022-11-15T04:23:19;8.16;82.04
69208;SHT31;56321;47.662;8.878;2022-11-15T04:26:06;8.17;81.92
69208;SHT31;56321;47.662;8.878;2022-11-15T04:28:32;8.17;81.90
69208;SHT31;56321;47.662;8.878;2022-11-15T04:30:58;8.13;81.90
69208;SHT31;56321;47.662;8.878;2022-11-15T04:33:23;8.13;81.92
69208;SHT31;56321;47.662;8.878;2022-11-15T04:35:49;8.10;81.80
69208;SHT31;56321;47.662;8.878;2022-11-15T04:38:33;8.09;81.83
69208;SHT31;56321;47.662;8.878;2022-11-15T04:40:59;8.06;81.81
69208;SHT31;56321;47.662;8.878;2022-11-15T04:43:24;8.02;81.81
69208;SHT31;56321;47.662;8.878;2022-11-15T04:45:50;8.03;81.78
69208;SHT31;56321;47.662;8.878;2022-11-15T04:48:15;8.00;81.86
69208;SHT31;56321;47.662;8.878;2022-11-15T04:50:40;8.00;81.89
69208;SHT31;56321;47.662;8.878;2022-11-15T04:53:06;7.99;81.90
69208;SHT31;56321;47.662;8.878;2022-11-15T04:55:31;7.99;81.99
69208;SHT31;56321;47.662;8.878;2022-11-15T04:57:58;7.99;81.98
69208;SHT31;56321;47.662;8.878;2022-11-15T05:00:25;7.96;81.97
69208;SHT31;56321;47.662;8.878;2022-11-15T05:02:51;7.97;81.91
69208;SHT31;56321;47.662;8.878;2022-11-15T05:05:35;7.96;81.94
69208;SHT31;56321;47.662;8.878;2022-11-15T05:08:00;7.92;82.03
69208;SHT31;56321;47.662;8.878;2022-11-15T05:10:26;7.90;81.96
69208;SHT31;56321;47.662;8.878;2022-11-15T05:12:51;7.88;81.97
69208;SHT31;56321;47.662;8.878;2022-11-15T05:15:16;7.85;82.13
69208;SHT31;56321;47.662;8.878;2022-11-15T05:17:42;7.83;82.19
69208;SHT31;56321;47.662;8.878;2022-11-15T05:20:07;7.85;82.38
69208;SHT31;56321;47.662;8.878;2022-11-15T05:22:33;7.83;82.53
69208;SHT31;56321;47.662;8.878;2022-11-15T05:24:58;7.86;82.51
69208;SHT31;56321;47.662;8.878;2022-11-15T05:27:23;7.86;82.41
69208;SHT31;56321;47.662;8.878;2022-11-15T05:29:49;7.85;82.37
69208;SHT31;56321;47.662;8.878;2022-11-15T05:32:15;7.86;82.35
69208;SHT31;56321;47.662;8.878;2022-11-15T05:34:41;7.86;82.44
69208;SHT31;56321;47.662;8.878;2022-11-15T05:37:07;7.88;82.32
69208;SHT31;56321;47.662;8.878;2022-11-15T05:39:32;7.81;82.29
69208;SHT31;56321;47.662;8.878;2022-11-15T05:42:24;7.81;82.64
69208;SHT31;56321;47.662;8.878;2022-11-15T05:44:50;7.79;82.60
69208;SHT31;56321;47.662;8.878;2022-11-15T05:47:20;7.79;82.60
69208;SHT31;56321;47.662;8.878;2022-11-15T05:49:47;7.79;82.67
69208;SHT31;56321;47.662;8.878;2022-11-15T05:52:16;7.77;82.67
69208;SHT31;56321;47.662;8.878;2022-11-15T05:54:43;7.74;82.66
69208;SHT31;56321;47.662;8.878;2022-11-15T05:57:09;7.69;82.57
69208;SHT31;56321;47.662;8.878;2022-11-15T05:59:35;7.69;82.47
69208;SHT31;56321;47.662;8.878;2022-11-15T06:02:00;7.67;82.53
69208;SHT31;56321;47.662;8.878;2022-11-15T06:04:26;7.65;82.44
69208;SHT31;56321;47.662;8.878;2022-11-15T06:06:51;7.61;82.58
69208;SHT31;56321;47.662;8.878;2022-11-15T06:09:17;7.61;82.64
69208;SHT31;56321;47.662;8.878;2022-11-15T06:11:42;7.59;82.64
69208;SHT31;56321;47.662;8.878;2022-11-15T06:14:07;7.61;82.62
69208;SHT31;56321;47.662;8.878;2022-11-15T06:16:33;7.59;82.44
69208;SHT31;56321;47.662;8.878;2022-11-15T06:18:58;7.57;82.38
69208;SHT31;56321;47.662;8.878;2022-11-15T06:21:24;7.55;82.32
69208;SHT31;56321;47.662;8.878;2022-11-15T06:23:49;7.55;82.36
69208;SHT31;56321;47.662;8.878;2022-11-15T06:26:14;7.57;82.37
69208;SHT31;56321;47.662;8.878;2022-11-15T06:28:40;7.57;82.35
69208;SHT31;56321;47.662;8.878;2022-11-15T06:31:07;7.59;82.40
69208;SHT31;56321;47.662;8.878;2022-11-15T06:33:32;7.61;82.44
69208;SHT31;56321;47.662;8.878;2022-11-15T06:36:02;7.61;82.41
69208;SHT31;56321;47.662;8.878;2022-11-15T06:38:28;7.64;82.55
69208;SHT31;56321;47.662;8.878;2022-11-15T06:40:53;7.67;82.60
69208;SHT31;56321;47.662;8.878;2022-11-15T06:43:19;7.69;82.62
69208;SHT31;56321;47.662;8.878;2022-11-15T06:45:44;7.71;82.51
69208;SHT31;56321;47.662;8.878;2022-11-15T06:48:09;7.72;82.60
69208;SHT31;56321;47.662;8.878;2022-11-15T06:50:35;7.75;82.71
69208;SHT31;56321;47.662;8.878;2022-11-15T06:53:02;7.79;82.72
69208;SHT31;56321;47.662;8.878;2022-11-15T06:55:28;7.82;82.62
69208;SHT31;56321;47.662;8.878;2022-11-15T06:57:53;7.82;82.53
69208;SHT31;56321;47.662;8.878;2022-11-15T07:00:20;7.88;82.46
69208;SHT31;56321;47.662;8.878;2022-11-15T07:02:46;7.88;82.59
69208;SHT31;56321;47.662;8.878;2022-11-15T07:05:12;7.93;82.82
69208;SHT31;56321;47.662;8.878;2022-11-15T07:07:37;7.97;82.91
69208;SHT31;56321;47.662;8.878;2022-11-15T07:10:04;8.00;82.86
69208;SHT31;56321;47.662;8.878;2022-11-15T07:12:29;8.05;82.82
69208;SHT31;56321;47.662;8.878;2022-11-15T07:14:54;8.09;82.82
69208;SHT31;56321;47.662;8.878;2022-11-15T07:17:20;8.14;82.84
69208;SHT31;56321;47.662;8.878;2022-11-15T07:19:45;8.20;82.72
69208;SHT31;56321;47.662;8.878;2022-11-15T07:22:10;8.24;82.62
69208;SHT31;56321;47.662;8.878;2022-11-15T07:24:36;8.26;82.40
69208;SHT31;56321;47.662;8.878;2022-11-15T07:27:01;8.29;82.51
69208;SHT31;56321;47.662;8.878;2022-11-15T07:29:26;8.32;82.54
69208;SHT31;56321;47.662;8.878;2022-11-15T07:31:52;8.34;82.56
69208;SHT31;56321;47.662;8.878;2022-11-15T07:34:17;8.38;82.63
69208;SHT31;56321;47.662;8.878;2022-11-15T07:36:43;8.40;82.78
69208;SHT31;56321;47.662;8.878;2022-11-15T07:39:08;8.45;83.00
69208;SHT31;56321;47.662;8.878;2022-11-15T07:41:33;8.50;82.91
69208;SHT31;56321;47.662;8.878;2022-11-15T07:43:59;8.53;82.98
69208;SHT31;56321;47.662;8.878;2022-11-15T07:46:25;8.58;82.95
69208;SHT31;56321;47.662;8.878;2022-11-15T07:48:50;8.63;83.13
69208;SHT31;56321;47.662;8.878;2022-11-15T07:51:16;8.65;83.01
69208;SHT31;56321;47.662;8.878;2022-11-15T07:53:42;8.69;83.14
69208;SHT31;56321;47.662;8.878;2022-11-15T07:56:08;8.72;82.95
69208;SHT31;56321;47.662;8.878;2022-11-15T07:58:34;8.75;82.97
69208;SHT31;56321;47.662;8.878;2022-11-15T08:01:05;8.76;83.10
69208;SHT31;56321;47.662;8.878;2022-11-15T08:03:32;8.81;83.21
69208;SHT31;56321;47.662;8.878;2022-11-15T08:05:57;8.84;83.01
69208;SHT31;56321;47.662;8.878;2022-11-15T08:08:22;8.89;83.01
69208;SHT31;56321;47.662;8.878;2022-11-15T08:10:48;8.91;83.10
69208;SHT31;56321;47.662;8.878;2022-11-15T08:13:13;8.92;82.96
69208;SHT31;56321;47.662;8.878;2022-11-15T08:15:39;8.95;82.96
69208;SHT31;56321;47.662;8.878;2022-11-15T08:18:08;8.96;83.02
69208;SHT31;56321;47.662;8.878;2022-11-15T08:20:34;8.96;82.90
69208;SHT31;56321;47.662;8.878;2022-11-15T08:23:01;8.99;83.02
69208;SHT31;56321;47.662;8.878;2022-11-15T08:25:29;8.99;83.25
69208;SHT31;56321;47.662;8.878;2022-11-15T08:28:00;9.03;83.27
69208;SHT31;56321;47.662;8.878;2022-11-15T08:30:25;9.06;83.38
69208;SHT31;56321;47.662;8.878;2022-11-15T08:32:52;9.11;83.26
69208;SHT31;56321;47.662;8.878;2022-11-15T08:35:18;9.13;83.24
69208;SHT31;56321;47.662;8.878;2022-11-15T08:37:44;9.13;83.08
69208;SHT31;56321;47.662;8.878;2022-11-15T08:40:09;9.15;83.24
69208;SHT31;56321;47.662;8.878;2022-11-15T08:42:35;9.23;83.28
69208;SHT31;56321;47.662;8.878;2022-11-15T08:45:01;9.27;83.33
69208;SHT31;56321;47.662;8.878;2022-11-15T08:47:26;9.36;83.35
69208;SHT31;56321;47.662;8.878;2022-11-15T08:49:52;9.44;83.26
69208;SHT31;56321;47.662;8.878;2022-11-15T08:52:18;9.50;83.11
69208;SHT31;56321;47.662;8.878;2022-11-15T08:54:43;9.55;83.17
69208;SHT31;56321;47.662;8.878;2022-11-15T08:57:08;9.57;82.97
69208;SHT31;56321;47.662;8.878;2022-11-15T08:59:35;9.58;82.85
69208;SHT31;56321;47.662;8.878;2022-11-15T09:02:01;9.58;82.99
69208;SHT31;56321;47.662;8.878;2022-11-15T09:04:26;9.61;82.82
69208;SHT31;56321;47.662;8.878;2022-11-15T09:06:52;9.62;82.66
69208;SHT31;56321;47.662;8.878;2022-11-15T09:09:17;9.64;82.78
69208;SHT31;56321;47.662;8.878;2022-11-15T09:11:42;9.64;82.58
69208;SHT31;56321;47.662;8.878;2022-11-15T09:14:13;9.67;82.58
69208;SHT31;56321;47.662;8.878;2022-11-15T09:16:38;9.67;82.45
69208;SHT31;56321;47.662;8.878;2022-11-15T09:19:03;9.65;82.45
69208;SHT31;56321;47.662;8.878;2022-11-15T09:21:29;9.64;82.46
69208;SHT31;56321;47.662;8.878;2022-11-15T09:23:55;9.70;82.40
69208;SHT31;56321;47.662;8.878;2022-11-15T09:26:20;9.70;82.27
69208;SHT31;56321;47.662;8.878;2022-11-15T09:28:46;9.71;82.42
69208;SHT31;56321;47.662;8.878;2022-11-15T09:31:11;9.77;82.10
69208;SHT31;56321;47.662;8.878;2022-11-15T09:33:36;9.85;82.02
69208;SHT31;56321;47.662;8.878;2022-11-15T09:36:07;9.88;81.91
69208;SHT31;56321;47.662;8.878;2022-11-15T09:38:33;9.92;81.66
69208;SHT31;56321;47.662;8.878;2022-11-15T09:46:51;9.98;81.49
69208;SHT31;56321;47.662;8.878;2022-11-15T09:49:13;9.97;81.43
69208;SHT31;56321;47.662;8.878;2022-11-15T09:51:43;9.98;81.02
69208;SHT31;56321;47.662;8.878;2022-11-15T09:54:31;9.97;80.86
69208;SHT31;56321;47.662;8.878;2022-11-15T09:59:51;10.05;81.06
69208;SHT31;56321;47.662;8.878;2022-11-15T10:02:36;10.12;81.28
69208;SHT31;56321;47.662;8.878;2022-11-15T10:05:10;10.19;80.87
69208;SHT31;56321;47.662;8.878;2022-11-15T10:08:03;10.23;80.92
69208;SHT31;56321;47.662;8.878;2022-11-15T10:13:03;10.35;80.77
69208;SHT31;56321;47.662;8.878;2022-11-15T10:15:28;10.35;80.63
69208;SHT31;56321;47.662;8.878;2022-11-15T10:20:46;10.35;80.90
69208;SHT31;56321;47.662;8.878;2022-11-15T10:23:15;10.40;80.99
69208;SHT31;56321;47.662;8.878;2022-11-15T10:25:41;10.45;80.96
69208;SHT31;56321;47.662;8.878;2022-11-15T10:30:40;10.66;80.80
69208;SHT31;56321;47.662;8.878;2022-11-15T10:33:13;10.75;80.67
69208;SHT31;56321;47.662;8.878;2022-11-15T10:35:42;10.87;80.34
69208;SHT31;56321;47.662;8.878;2022-11-15T10:38:10;10.97;80.54
69208;SHT31;56321;47.662;8.878;2022-11-15T10:40:36;11.10;80.36
69208;SHT31;56321;47.662;8.878;2022-11-15T10:45:32;11.25;79.51
69208;SHT31;56321;47.662;8.878;2022-11-15T10:53:15;11.33;79.37
69208;SHT31;56321;47.662;8.878;2022-11-15T10:55:46;11.33;79.67
69208;SHT31;56321;47.662;8.878;2022-11-15T10:58:31;11.38;79.68
69208;SHT31;56321;47.662;8.878;2022-11-15T11:03:40;11.36;79.07
69208;SHT31;56321;47.662;8.878;2022-11-15T11:06:16;11.31;79.24
69208;SHT31;56321;47.662;8.878;2022-11-15T11:09:02;11.28;78.88
69208;SHT31;56321;47.662;8.878;2022-11-15T11:11:46;11.25;79.33
69208;SHT31;56321;47.662;8.878;2022-11-15T11:14:13;11.25;79.63
69208;SHT31;56321;47.662;8.878;2022-11-15T11:16:48;11.25;79.68
69208;SHT31;56321;47.662;8.878;2022-11-15T11:19:17;11.23;79.79
69208;SHT31;56321;47.662;8.878;2022-11-15T11:27:13;11.26;79.99
69208;SHT31;56321;47.662;8.878;2022-11-15T11:30:02;11.29;79.85
69208;SHT31;56321;47.662;8.878;2022-11-15T11:35:19;11.32;79.62
69208;SHT31;56321;47.662;8.878;2022-11-15T11:40:51;11.36;79.60
69208;SHT31;56321;47.662;8.878;2022-11-15T11:46:31;11.38;79.30
69208;SHT31;56321;47.662;8.878;2022-11-15T11:49:08;11.36;79.38
69208;SHT31;56321;47.662;8.878;2022-11-15T11:54:30;11.43;79.69
69208;SHT31;56321;47.662;8.878;2022-11-15T11:56:59;11.47;79.45
69208;SHT31;56321;47.662;8.878;2022-11-15T11:59:37;11.55;79.58
69208;SHT31;56321;47.662;8.878;2022-11-15T12:02:16;11.60;79.84
69208;SHT31;56321;47.662;8.878;2022-11-15T12:04:49;11.71;79.76
69208;SHT31;56321;47.662;8.878;2022-11-15T12:07:21;11.81;79.59
69208;SHT31;56321;47.662;8.878;2022-11-15T12:12:24;11.86;78.29
69208;SHT31;56321;47.662;8.878;2022-11-15T12:15:10;11.88;78.67
69208;SHT31;56321;47.662;8.878;2022-11-15T12:17:40;11.87;78.90
69208;SHT31;56321;47.662;8.878;2022-11-15T12:22:44;11.88;79.06
69208;SHT31;56321;47.662;8.878;2022-11-15T12:25:31;11.86;79.19
69208;SHT31;56321;47.662;8.878;2022-11-15T12:28:08;11.83;78.98
69208;SHT31;56321;47.662;8.878;2022-11-15T12:30:51;11.80;79.20
69208;SHT31;56321;47.662;8.878;2022-11-15T12:33:41;11.79;79.68
69208;SHT31;56321;47.662;8.878;2022-11-15T12:36:29;11.80;79.78
69208;SHT31;56321;47.662;8.878;2022-11-15T12:39:00;11.83;79.83
69208;SHT31;56321;47.662;8.878;2022-11-15T12:43:54;11.83;80.06
69208;SHT31;56321;47.662;8.878;2022-11-15T12:48:51;11.88;79.85
69208;SHT31;56321;47.662;8.878;2022-11-15T12:51:20;11.91;79.79
69208;SHT31;56321;47.662;8.878;2022-11-15T12:53:45;11.94;79.78
69208;SHT31;56321;47.662;8.878;2022-11-15T13:04:28;11.94;79.78
69208;SHT31;56321;47.662;8.878;2022-11-15T13:07:03;12.00;79.85
69208;SHT31;56321;47.662;8.878;2022-11-15T13:11:55;11.97;80.01
69208;SHT31;56321;47.662;8.878;2022-11-15T13:22:24;12.01;80.19
69208;SHT31;56321;47.662;8.878;2022-11-15T13:27:56;11.97;79.77
69208;SHT31;56321;47.662;8.878;2022-11-15T13:30:25;12.00;79.74
69208;SHT31;56321;47.662;8.878;2022-11-15T13:32:51;11.95;79.76
69208;SHT31;56321;47.662;8.878;2022-11-15T13:35:28;11.90;79.78
69208;SHT31;56321;47.662;8.878;2022-11-15T13:37:55;11.88;79.87
69208;SHT31;56321;47.662;8.878;2022-11-15T13:40:33;11.86;79.73
69208;SHT31;56321;47.662;8.878;2022-11-15T13:42:59;11.83;79.86
69208;SHT31;56321;47.662;8.878;2022-11-15T13:45:25;11.80;80.06
69208;SHT31;56321;47.662;8.878;2022-11-15T13:47:56;11.77;80.00
69208;SHT31;56321;47.662;8.878;2022-11-15T13:50:31;11.73;79.83
69208;SHT31;56321;47.662;8.878;2022-11-15T13:53:01;11.69;79.95
69208;SHT31;56321;47.662;8.878;2022-11-15T13:55:29;11.65;80.09
69208;SHT31;56321;47.662;8.878;2022-11-15T13:58:00;11.66;80.20
69208;SHT31;56321;47.662;8.878;2022-11-15T14:00:43;11.65;80.07
69208;SHT31;56321;47.662;8.878;2022-11-15T14:03:24;11.63;80.16
69208;SHT31;56321;47.662;8.878;2022-11-15T14:06:05;11.60;80.27
69208;SHT31;56321;47.662;8.878;2022-11-15T14:08:32;11.62;80.38
69208;SHT31;56321;47.662;8.878;2022-11-15T14:11:09;11.65;80.61
69208;SHT31;56321;47.662;8.878;2022-11-15T14:13:35;11.65;80.61
69208;SHT31;56321;47.662;8.878;2022-11-15T14:16:21;11.63;80.76
69208;SHT31;56321;47.662;8.878;2022-11-15T14:18:51;11.63;80.75
69208;SHT31;56321;47.662;8.878;2022-11-15T14:21:18;11.63;80.65
69208;SHT31;56321;47.662;8.878;2022-11-15T14:23:44;11.59;80.51
69208;SHT31;56321;47.662;8.878;2022-11-15T14:26:30;11.56;80.37
69208;SHT31;56321;47.662;8.878;2022-11-15T14:28:55;11.56;80.23
69208;SHT31;56321;47.662;8.878;2022-11-15T14:31:21;11.55;80.28
69208;SHT31;56321;47.662;8.878;2022-11-15T14:33:47;11.53;80.65
69208;SHT31;56321;47.662;8.878;2022-11-15T14:36:15;11.53;80.76
69208;SHT31;56321;47.662;8.878;2022-11-15T14:38:41;11.55;80.88
69208;SHT31;56321;47.662;8.878;2022-11-15T14:41:21;11.52;81.00
69208;SHT31;56321;47.662;8.878;2022-11-15T14:43:47;11.55;80.97
69208;SHT31;56321;47.662;8.878;2022-11-15T14:46:12;11.53;80.92
69208;SHT31;56321;47.662;8.878;2022-11-15T14:48:38;11.56;80.83
69208;SHT31;56321;47.662;8.878;2022-11-15T14:51:12;11.56;80.86
69208;SHT31;56321;47.662;8.878;2022-11-15T14:53:39;11.56;80.74
69208;SHT31;56321;47.662;8.878;2022-11-15T14:56:04;11.59;80.70
69208;SHT31;56321;47.662;8.878;2022-11-15T14:58:30;11.59;80.78
69208;SHT31;56321;47.662;8.878;2022-11-15T15:00:55;11.60;80.75
69208;SHT31;56321;47.662;8.878;2022-11-15T15:03:20;11.60;80.67
69208;SHT31;56321;47.662;8.878;2022-11-15T15:05:46;11.60;80.79
69208;SHT31;56321;47.662;8.878;2022-11-15T15:08:11;11.60;81.01
69208;SHT31;56321;47.662;8.878;2022-11-15T15:10:40;11.60;81.12
69208;SHT31;56321;47.662;8.878;2022-11-15T15:15:38;11.58;80.96
69208;SHT31;56321;47.662;8.878;2022-11-15T15:18:04;11.55;81.00
69208;SHT31;56321;47.662;8.878;2022-11-15T15:20:31;11.52;81.10
69208;SHT31;56321;47.662;8.878;2022-11-15T15:22:56;11.53;81.15
69208;SHT31;56321;47.662;8.878;2022-11-15T15:25:32;11.52;81.16
69208;SHT31;56321;47.662;8.878;2022-11-15T15:27:59;11.49;81.21
69208;SHT31;56321;47.662;8.878;2022-11-15T15:30:25;11.47;81.26
69208;SHT31;56321;47.662;8.878;2022-11-15T15:32:51;11.46;81.23
69208;SHT31;56321;47.662;8.878;2022-11-15T15:35:17;11.43;81.04
69208;SHT31;56321;47.662;8.878;2022-11-15T15:37:44;11.40;80.93
69208;SHT31;56321;47.662;8.878;2022-11-15T15:40:16;11.36;80.91
69208;SHT31;56321;47.662;8.878;2022-11-15T15:42:42;11.35;81.11
69208;SHT31;56321;47.662;8.878;2022-11-15T15:45:08;11.32;81.16
69208;SHT31;56321;47.662;8.878;2022-11-15T15:47:34;11.32;81.20
69208;SHT31;56321;47.662;8.878;2022-11-15T15:50:00;11.28;81.06
69208;SHT31;56321;47.662;8.878;2022-11-15T15:52:25;11.25;81.05
69208;SHT31;56321;47.662;8.878;2022-11-15T15:54:50;11.23;81.11
69208;SHT31;56321;47.662;8.878;2022-11-15T15:57:16;11.19;80.86
69208;SHT31;56321;47.662;8.878;2022-11-15T15:59:41;11.15;81.12
69208;SHT31;56321;47.662;8.878;2022-11-15T16:02:16;11.14;81.42
69208;SHT31;56321;47.662;8.878;2022-11-15T16:04:41;11.15;81.50
69208;SHT31;56321;47.662;8.878;2022-11-15T16:07:15;11.16;81.52
69208;SHT31;56321;47.662;8.878;2022-11-15T16:09:41;11.16;81.45
69208;SHT31;56321;47.662;8.878;2022-11-15T16:12:25;11.14;81.49
69208;SHT31;56321;47.662;8.878;2022-11-15T16:14:50;11.16;81.51
69208;SHT31;56321;47.662;8.878;2022-11-15T16:17:18;11.16;81.15
69208;SHT31;56321;47.662;8.878;2022-11-15T16:19:44;11.16;80.83
69208;SHT31;56321;47.662;8.878;2022-11-15T16:22:09;11.14;80.69
69208;SHT31;56321;47.662;8.878;2022-11-15T16:24:34;11.11;80.54
69208;SHT31;56321;47.662;8.878;2022-11-15T16:27:00;11.11;80.57
69208;SHT31;56321;47.662;8.878;2022-11-15T16:29:25;11.10;80.63
69208;SHT31;56321;47.662;8.878;2022-11-15T16:31:50;11.08;80.95
69208;SHT31;56321;47.662;8.878;2022-11-15T16:34:16;11.08;81.04
69208;SHT31;56321;47.662;8.878;2022-11-15T16:36:41;11.08;81.04
69208;SHT31;56321;47.662;8.878;2022-11-15T16:39:10;11.05;81.00
69208;SHT31;56321;47.662;8.878;2022-11-15T16:41:36;11.07;81.10
69208;SHT31;56321;47.662;8.878;2022-11-15T16:44:01;11.04;81.00
69208;SHT31;56321;47.662;8.878;2022-11-15T16:46:27;11.05;81.00
69208;SHT31;56321;47.662;8.878;2022-11-15T16:48:54;11.04;80.99
69208;SHT31;56321;47.662;8.878;2022-11-15T16:51:20;11.02;80.94
69208;SHT31;56321;47.662;8.878;2022-11-15T16:53:46;10.98;81.02
69208;SHT31;56321;47.662;8.878;2022-11-15T16:58:38;10.94;81.24
69208;SHT31;56321;47.662;8.878;2022-11-15T17:01:03;10.97;81.40
69208;SHT31;56321;47.662;8.878;2022-11-15T17:03:29;10.98;81.45
69208;SHT31;56321;47.662;8.878;2022-11-15T17:05:57;11.00;81.33
69208;SHT31;56321;47.662;8.878;2022-11-15T17:08:23;10.98;81.28
69208;SHT31;56321;47.662;8.878;2022-11-15T17:10:49;10.95;81.30
69208;SHT31;56321;47.662;8.878;2022-11-15T17:13:14;10.98;81.29
69208;SHT31;56321;47.662;8.878;2022-11-15T17:15:39;11.00;81.47
69208;SHT31;56321;47.662;8.878;2022-11-15T17:18:05;11.01;81.56
69208;SHT31;56321;47.662;8.878;2022-11-15T17:20:31;11.01;81.58
69208;SHT31;56321;47.662;8.878;2022-11-15T17:22:56;10.98;81.49
69208;SHT31;56321;47.662;8.878;2022-11-15T17:25:22;10.98;81.53
69208;SHT31;56321;47.662;8.878;2022-11-15T17:27:47;10.95;81.50
69208;SHT31;56321;47.662;8.878;2022-11-15T17:30:14;10.95;81.53